createdAt,value
2018-12-25T00:01:33.010Z,4.93
2018-12-25T00:03:52.553Z,4.20
2018-12-25T00:06:12.150Z,5.70
2018-12-25T00:08:31.520Z,6.97
2018-12-25T00:10:50.976Z,5.43
2018-12-25T00:13:10.334Z,4.97
2018-12-25T00:15:29.848Z,5.23
2018-12-25T00:17:51.732Z,4.27
2018-12-25T00:20:12.467Z,3.83
2018-12-25T00:22:32.160Z,6.43
2018-12-25T00:24:55.549Z,4.70
2018-12-25T00:27:14.689Z,4.93
2018-12-25T00:29:34.324Z,5.43
2018-12-25T00:31:53.689Z,6.37
2018-12-25T00:34:12.850Z,3.93
2018-12-25T00:36:32.138Z,4.60
2018-12-25T00:38:52.215Z,6.77
2018-12-25T00:41:11.920Z,4.40
2018-12-25T00:43:32.086Z,4.13
2018-12-25T00:45:51.723Z,3.40
2018-12-25T00:48:11.639Z,4.00
2018-12-25T00:50:31.632Z,3.20
2018-12-25T00:52:51.057Z,4.97
2018-12-25T00:55:38.536Z,7.67
2018-12-25T00:57:55.607Z,6.83
2018-12-25T01:00:14.814Z,7.07
2018-12-25T01:02:34.196Z,4.07
2018-12-25T01:04:53.761Z,3.87
2018-12-25T01:07:13.421Z,4.87
2018-12-25T01:09:33.068Z,5.00
2018-12-25T01:11:52.356Z,6.33
2018-12-25T01:14:11.708Z,7.23
2018-12-25T01:18:49.643Z,7.40
2018-12-25T01:21:11.646Z,7.47
2018-12-25T01:23:31.531Z,6.67
2018-12-25T01:25:51.258Z,7.10
2018-12-25T01:28:09.368Z,14.67
2018-12-25T01:30:29.087Z,25.50
2018-12-25T01:32:48.660Z,10.97
2018-12-25T01:35:07.927Z,8.10
2018-12-25T01:37:27.588Z,6.13
2018-12-25T01:39:47.092Z,9.80
2018-12-25T01:42:06.601Z,4.53
2018-12-25T01:44:25.970Z,5.17
2018-12-25T01:46:45.354Z,5.10
2018-12-25T01:49:04.588Z,5.90
2018-12-25T01:51:12.457Z,5.87
2018-12-25T01:53:29.707Z,7.83
2018-12-25T01:55:48.547Z,8.57
2018-12-25T01:58:08.133Z,7.67
2018-12-25T02:00:27.354Z,5.17
2018-12-25T02:02:46.853Z,5.17
2018-12-25T02:05:06.410Z,5.03
2018-12-25T02:07:26.183Z,5.53
2018-12-25T02:09:45.953Z,5.90
2018-12-25T02:12:05.186Z,6.67
2018-12-25T02:14:24.954Z,6.20
2018-12-25T02:16:44.559Z,7.57
2018-12-25T02:19:04.181Z,6.70
2018-12-25T02:21:22.262Z,9.17
2018-12-25T02:23:41.751Z,5.57
2018-12-25T02:26:01.096Z,5.93
2018-12-25T02:28:20.201Z,6.60
2018-12-25T02:30:27.966Z,5.63
2018-12-25T02:32:47.503Z,5.50
2018-12-25T02:35:07.309Z,5.00
2018-12-25T02:37:26.337Z,6.80
2018-12-25T02:39:46.103Z,6.23
2018-12-25T02:42:05.180Z,6.47
2018-12-25T02:44:25.027Z,8.20
2018-12-25T02:46:44.920Z,6.93
2018-12-25T02:49:03.983Z,9.27
2018-12-25T02:51:23.841Z,6.20
2018-12-25T02:53:42.794Z,5.60
2018-12-25T02:56:21.431Z,4.83
2018-12-25T02:58:42.551Z,6.90
2018-12-25T03:01:02.415Z,7.83
2018-12-25T03:03:21.934Z,8.27
2018-12-25T03:05:41.459Z,6.37
2018-12-25T03:08:01.621Z,8.47
2018-12-25T03:10:21.548Z,7.17
2018-12-25T03:12:40.731Z,7.45
2018-12-25T03:15:00.533Z,7.65
2018-12-25T03:17:19.857Z,5.65
2018-12-25T03:19:39.104Z,6.87
2018-12-25T03:21:58.513Z,5.87
2018-12-25T03:24:17.892Z,8.33
2018-12-25T03:26:37.114Z,5.83
2018-12-25T03:28:56.608Z,6.53
2018-12-25T03:31:16.394Z,7.25
2018-12-25T03:33:36.697Z,9.23
2018-12-25T03:35:56.472Z,7.62
2018-12-25T03:38:15.812Z,7.75
2018-12-25T03:40:35.331Z,5.45
2018-12-25T03:42:54.990Z,8.60
2018-12-25T03:45:14.147Z,5.75
2018-12-25T03:47:33.618Z,6.50
2018-12-25T03:49:53.053Z,8.25
2018-12-25T03:52:12.454Z,7.72
2018-12-25T03:54:32.184Z,5.50
2018-12-25T03:56:51.490Z,10.65
2018-12-25T03:59:10.751Z,6.00
2018-12-25T04:01:30.197Z,5.95
2018-12-25T04:03:48.171Z,5.30
2018-12-25T04:06:07.943Z,5.33
2018-12-25T04:08:26.900Z,5.78
2018-12-25T04:10:46.375Z,6.92
2018-12-25T04:13:05.807Z,7.60
2018-12-25T04:15:25.004Z,4.92
2018-12-25T04:17:44.824Z,8.83
2018-12-25T04:20:04.471Z,6.22
2018-12-25T04:22:24.326Z,6.50
2018-12-25T04:24:43.996Z,4.47
2018-12-25T04:27:03.922Z,7.08
2018-12-25T04:29:23.074Z,6.55
2018-12-25T04:31:42.450Z,9.58
2018-12-25T04:34:01.881Z,8.83
2018-12-25T04:36:20.961Z,5.60
2018-12-25T04:38:40.426Z,8.20
2018-12-25T04:41:00.374Z,6.03
2018-12-25T04:43:20.423Z,6.90
2018-12-25T04:45:39.991Z,6.00
2018-12-25T04:47:59.638Z,7.25
2018-12-25T04:50:19.274Z,9.10
2018-12-25T04:52:38.611Z,7.12
2018-12-25T04:54:58.130Z,6.40
2018-12-25T04:57:17.095Z,6.50
2018-12-25T04:59:36.188Z,6.22
2018-12-25T05:01:55.301Z,7.75
2018-12-25T05:04:14.890Z,5.25
2018-12-25T05:06:34.304Z,5.50
2018-12-25T05:08:53.763Z,6.40
2018-12-25T05:11:11.703Z,5.17
2018-12-25T05:13:30.852Z,7.05
2018-12-25T05:15:48.729Z,5.53
2018-12-25T05:18:08.307Z,5.58
2018-12-25T05:20:26.260Z,7.65
2018-12-25T05:22:45.661Z,5.67
2018-12-25T05:24:53.708Z,7.83
2018-12-25T05:27:13.094Z,7.85
2018-12-25T05:29:32.619Z,7.17
2018-12-25T05:31:51.619Z,6.10
2018-12-25T05:34:11.719Z,8.65
2018-12-25T05:36:30.973Z,6.42
2018-12-25T05:38:50.667Z,8.00
2018-12-25T05:41:10.054Z,5.60
2018-12-25T05:43:29.518Z,7.22
2018-12-25T05:45:49.075Z,7.90
2018-12-25T05:48:08.522Z,11.05
2018-12-25T05:50:28.683Z,5.67
2018-12-25T05:52:48.262Z,5.97
2018-12-25T05:55:07.150Z,7.80
2018-12-25T05:57:26.130Z,4.78
2018-12-25T05:59:45.107Z,6.28
2018-12-25T06:02:05.048Z,6.22
2018-12-25T06:04:24.540Z,4.78
2018-12-25T06:06:43.972Z,8.35
2018-12-25T06:09:04.385Z,6.33
2018-12-25T06:11:23.826Z,9.50
2018-12-25T06:13:41.828Z,6.90
2018-12-25T06:16:01.198Z,6.85
2018-12-25T06:18:20.231Z,8.75
2018-12-25T06:20:39.874Z,6.75
2018-12-25T06:22:59.581Z,6.58
2018-12-25T06:25:18.854Z,6.58
2018-12-25T06:27:38.491Z,6.83
2018-12-25T06:29:56.308Z,7.72
2018-12-25T06:32:16.264Z,8.13
2018-12-25T06:34:35.667Z,6.30
2018-12-25T06:36:55.270Z,6.97
2018-12-25T06:39:14.896Z,8.50
2018-12-25T06:41:34.475Z,8.63
2018-12-25T06:43:54.223Z,6.72
2018-12-25T06:46:13.483Z,6.00
2018-12-25T06:48:32.682Z,6.67
2018-12-25T06:50:52.179Z,6.70
2018-12-25T06:53:11.544Z,8.70
2018-12-25T06:55:31.081Z,9.80
2018-12-25T06:57:50.337Z,8.05
2018-12-25T07:00:08.347Z,17.02
2018-12-25T07:02:28.215Z,7.00
2018-12-25T07:04:47.360Z,8.25
2018-12-25T07:07:06.663Z,7.05
2018-12-25T07:09:25.673Z,7.30
2018-12-25T07:11:45.088Z,8.95
2018-12-25T07:14:04.434Z,9.65
2018-12-25T07:16:23.905Z,8.05
2018-12-25T07:18:43.162Z,7.45
2018-12-25T07:21:02.280Z,8.53
2018-12-25T07:23:21.966Z,10.35
2018-12-25T07:25:41.227Z,8.75
2018-12-25T07:28:00.563Z,5.33
2018-12-25T07:30:19.627Z,5.75
2018-12-25T07:32:38.985Z,9.53
2018-12-25T07:34:58.679Z,9.68
2018-12-25T07:37:17.827Z,6.60
2018-12-25T07:39:37.398Z,6.58
2018-12-25T07:41:56.611Z,7.08
2018-12-25T07:44:16.083Z,5.85
2018-12-25T07:46:35.868Z,8.53
2018-12-25T07:48:55.602Z,8.58
2018-12-25T07:51:20.650Z,9.98
2018-12-25T07:53:35.834Z,13.60
2018-12-25T07:55:55.100Z,17.50
2018-12-25T07:58:14.940Z,20.08
2018-12-25T08:00:34.157Z,19.92
2018-12-25T08:02:56.018Z,18.23
2018-12-25T08:05:14.659Z,14.40
2018-12-25T08:07:33.889Z,16.80
2018-12-25T08:09:57.355Z,12.45
2018-12-25T08:12:17.108Z,12.93
2018-12-25T08:14:36.643Z,11.45
2018-12-25T08:16:55.978Z,14.07
2018-12-25T08:19:16.559Z,12.35
2018-12-25T08:21:35.839Z,55.40
2018-12-25T08:23:55.815Z,11.38
2018-12-25T08:26:15.245Z,15.23
2018-12-25T08:28:35.228Z,16.07
2018-12-25T08:30:55.817Z,18.90
2018-12-25T08:33:15.649Z,22.75
2018-12-25T08:35:34.591Z,18.60
2018-12-25T08:37:53.952Z,15.32
2018-12-25T08:40:13.393Z,12.80
2018-12-25T08:42:33.135Z,11.75
2018-12-25T08:44:52.564Z,12.70
2018-12-25T08:47:12.261Z,16.77
2018-12-25T08:49:32.109Z,15.05
2018-12-25T08:51:52.182Z,13.72
2018-12-25T08:54:11.951Z,11.57
2018-12-25T08:56:31.165Z,16.60
2018-12-25T08:58:50.125Z,13.83
2018-12-25T09:01:09.639Z,12.88
2018-12-25T09:03:28.721Z,11.57
2018-12-25T09:05:48.197Z,10.93
2018-12-25T09:08:07.921Z,11.50
2018-12-25T09:10:27.585Z,12.95
2018-12-25T09:12:46.748Z,13.83
2018-12-25T09:15:06.272Z,14.55
2018-12-25T09:17:25.563Z,13.00
2018-12-25T09:19:44.676Z,12.78
2018-12-25T09:22:04.300Z,11.85
2018-12-25T09:24:23.982Z,11.83
2018-12-25T09:26:44.238Z,15.10
2018-12-25T09:29:03.721Z,16.82
2018-12-25T09:31:24.028Z,12.67
2018-12-25T09:33:43.657Z,14.53
2018-12-25T09:36:03.439Z,15.70
2018-12-25T09:38:23.338Z,16.40
2018-12-25T09:40:43.050Z,14.67
2018-12-25T09:43:02.564Z,13.73
2018-12-25T09:45:21.936Z,15.10
2018-12-25T09:47:41.281Z,12.20
2018-12-25T09:50:00.752Z,14.07
2018-12-25T09:52:20.278Z,12.77
2018-12-25T09:54:39.901Z,10.60
2018-12-25T09:56:59.061Z,13.00
2018-12-25T09:59:18.270Z,10.97
2018-12-25T10:01:37.981Z,11.77
2018-12-25T10:03:57.543Z,10.73
2018-12-25T10:06:17.014Z,11.33
2018-12-25T10:08:36.863Z,11.67
2018-12-25T10:10:56.792Z,12.10
2018-12-25T10:13:16.529Z,13.17
2018-12-25T10:15:36.193Z,14.07
2018-12-25T10:17:55.523Z,14.17
2018-12-25T10:20:15.552Z,11.90
2018-12-25T10:22:33.576Z,11.07
2018-12-25T10:24:52.718Z,13.27
2018-12-25T10:27:12.228Z,16.80
2018-12-25T10:29:35.376Z,12.60
2018-12-25T10:32:07.725Z,11.67
2018-12-25T10:34:27.100Z,14.77
2018-12-25T10:36:46.601Z,13.43
2018-12-25T10:39:30.785Z,11.20
2018-12-25T10:41:29.541Z,11.83
2018-12-25T10:43:48.880Z,12.53
2018-12-25T10:46:08.357Z,13.90
2018-12-25T10:48:26.688Z,12.93
2018-12-25T10:50:46.555Z,15.93
2018-12-25T10:53:04.904Z,15.73
2018-12-25T10:55:24.033Z,13.20
2018-12-25T10:57:43.125Z,13.93
2018-12-25T11:00:02.436Z,12.87
2018-12-25T11:02:21.900Z,10.80
2018-12-25T11:04:41.811Z,11.20
2018-12-25T11:07:01.384Z,10.30
2018-12-25T11:09:21.097Z,9.83
2018-12-25T11:11:40.531Z,9.03
2018-12-25T11:14:00.208Z,10.33
2018-12-25T11:16:19.899Z,11.50
2018-12-25T11:18:39.212Z,9.60
2018-12-25T11:20:58.796Z,8.73
2018-12-25T11:23:18.105Z,7.77
2018-12-25T11:25:38.288Z,7.20
2018-12-25T11:27:58.163Z,10.37
2018-12-25T11:30:17.545Z,7.23
2018-12-25T11:32:36.742Z,10.20
2018-12-25T11:34:56.074Z,9.27
2018-12-25T11:37:15.717Z,8.20
2018-12-25T11:39:35.272Z,11.10
2018-12-25T11:41:54.491Z,9.40
2018-12-25T11:44:13.903Z,6.57
2018-12-25T11:46:32.914Z,7.20
2018-12-25T11:48:52.851Z,5.47
2018-12-25T11:51:13.677Z,5.40
2018-12-25T11:53:33.224Z,6.17
2018-12-25T11:55:52.453Z,6.27
2018-12-25T11:58:12.182Z,6.90
2018-12-25T12:00:32.199Z,9.80
2018-12-25T12:02:52.626Z,6.20
2018-12-25T12:05:12.271Z,6.60
2018-12-25T12:07:31.740Z,11.50
2018-12-25T12:09:51.160Z,9.97
2018-12-25T12:12:11.095Z,11.93
2018-12-25T12:14:30.504Z,9.20
2018-12-25T12:16:50.201Z,4.87
2018-12-25T12:19:09.861Z,5.10
2018-12-25T12:21:29.853Z,4.80
2018-12-25T12:23:50.055Z,4.80
2018-12-25T12:26:10.014Z,5.80
2018-12-25T12:28:29.682Z,6.77
2018-12-25T12:30:49.559Z,4.80
2018-12-25T12:33:08.871Z,3.80
2018-12-25T12:35:28.882Z,7.13
2018-12-25T12:37:48.656Z,4.73
2018-12-25T12:40:08.731Z,4.53
2018-12-25T12:42:28.270Z,5.97
2018-12-25T12:44:50.321Z,6.00
2018-12-25T12:47:09.658Z,4.60
2018-12-25T12:49:28.731Z,4.00
2018-12-25T12:51:50.731Z,4.20
2018-12-25T12:54:10.740Z,6.13
2018-12-25T12:56:30.544Z,5.40
2018-12-25T12:58:49.748Z,6.17
2018-12-25T13:01:09.393Z,4.93
2018-12-25T13:03:29.077Z,4.87
2018-12-25T13:05:48.471Z,6.60
2018-12-25T13:08:08.831Z,5.20
2018-12-25T13:10:27.934Z,3.83
2018-12-25T13:12:47.441Z,3.50
2018-12-25T13:15:06.790Z,4.40
2018-12-25T13:17:26.427Z,5.67
2018-12-25T13:19:46.842Z,5.83
2018-12-25T13:22:07.777Z,7.67
2018-12-25T13:24:29.625Z,4.30
2018-12-25T13:26:49.030Z,4.03
2018-12-25T13:29:09.092Z,4.43
2018-12-25T13:31:29.058Z,5.03
2018-12-25T13:33:48.499Z,6.20
2018-12-25T13:36:07.945Z,7.47
2018-12-25T13:38:27.502Z,6.37
2018-12-25T13:40:45.533Z,4.17
2018-12-25T13:43:09.054Z,4.33
2018-12-25T13:45:28.692Z,4.90
2018-12-25T13:47:47.872Z,6.50
2018-12-25T13:50:08.495Z,6.67
2018-12-25T13:52:28.328Z,8.00
2018-12-25T13:54:47.372Z,5.30
2018-12-25T13:57:07.018Z,6.53
2018-12-25T13:59:26.805Z,4.43
2018-12-25T14:01:46.254Z,6.56
2018-12-25T14:04:05.683Z,9.13
2018-12-25T14:06:25.480Z,6.43
2018-12-25T14:08:45.059Z,7.60
2018-12-25T14:11:04.361Z,5.77
2018-12-25T14:13:23.430Z,6.40
2018-12-25T14:15:42.682Z,6.10
2018-12-25T14:18:01.803Z,5.57
2018-12-25T14:20:21.852Z,7.42
2018-12-25T14:22:41.393Z,6.40
2018-12-25T14:24:59.378Z,6.70
2018-12-25T14:27:19.116Z,7.40
2018-12-25T14:29:38.969Z,6.93
2018-12-25T14:31:57.087Z,6.55
2018-12-25T14:34:16.687Z,5.93
2018-12-25T14:36:36.125Z,8.63
2018-12-25T14:38:56.057Z,6.23
2018-12-25T14:41:15.674Z,7.90
2018-12-25T14:43:35.489Z,8.70
2018-12-25T14:45:55.166Z,9.40
2018-12-25T14:48:14.916Z,9.47
2018-12-25T14:50:34.354Z,7.87
2018-12-25T14:52:54.365Z,10.27
2018-12-25T14:55:14.282Z,9.73
2018-12-25T14:57:34.077Z,7.60
2018-12-25T14:59:51.984Z,9.00
2018-12-25T15:02:11.451Z,6.70
2018-12-25T15:04:30.621Z,7.47
2018-12-25T15:06:48.596Z,16.40
2018-12-25T15:09:07.698Z,4.97
2018-12-25T15:11:27.319Z,5.30
2018-12-25T15:13:46.905Z,6.67
2018-12-25T15:16:06.465Z,8.40
2018-12-25T15:18:26.023Z,4.80
2018-12-25T15:20:45.122Z,6.30
2018-12-25T15:23:04.313Z,7.60
2018-12-25T15:25:23.623Z,5.17
2018-12-25T15:27:42.857Z,6.17
2018-12-25T15:30:01.855Z,7.00
2018-12-25T15:32:21.394Z,8.80
2018-12-25T15:34:42.135Z,6.97
2018-12-25T15:37:02.797Z,6.95
2018-12-25T15:39:22.486Z,8.50
2018-12-25T15:41:41.864Z,8.60
2018-12-25T15:44:01.102Z,8.57
2018-12-25T15:46:20.671Z,6.90
2018-12-25T15:48:39.875Z,6.30
2018-12-25T15:50:59.065Z,8.30
2018-12-25T15:53:19.675Z,6.90
2018-12-25T15:55:39.301Z,7.30
2018-12-25T15:57:59.206Z,10.68
2018-12-25T16:00:19.564Z,9.65
2018-12-25T16:02:38.757Z,10.50
2018-12-25T16:04:58.389Z,9.80
2018-12-25T16:07:17.426Z,9.33
2018-12-25T16:09:36.875Z,14.63
2018-12-25T16:11:56.727Z,10.70
2018-12-25T16:14:16.104Z,10.80
2018-12-25T16:16:35.246Z,10.57
2018-12-25T16:18:55.124Z,13.20
2018-12-25T16:21:15.096Z,13.30
2018-12-25T16:23:35.629Z,16.30
2018-12-25T16:25:55.610Z,14.80
2018-12-25T16:28:13.754Z,11.33
2018-12-25T16:30:33.154Z,10.40
2018-12-25T16:32:52.778Z,12.50
2018-12-25T16:35:11.045Z,12.60
2018-12-25T16:37:30.430Z,13.40
2018-12-25T16:39:50.036Z,12.07
2018-12-25T16:42:09.458Z,9.77
2018-12-25T16:44:29.078Z,10.80
2018-12-25T16:46:48.569Z,15.27
2018-12-25T16:49:08.453Z,13.28
2018-12-25T16:51:28.680Z,9.50
2018-12-25T16:53:53.510Z,12.37
2018-12-25T16:56:08.854Z,11.07
2018-12-25T16:58:28.518Z,11.10
2018-12-25T17:00:48.322Z,11.10
2018-12-25T17:03:07.751Z,10.13
2018-12-25T17:07:47.059Z,12.78
2018-12-25T17:10:34.398Z,12.53
2018-12-25T17:12:53.610Z,13.37
2018-12-25T17:15:13.354Z,12.88
2018-12-25T17:17:32.805Z,12.47
2018-12-25T17:19:50.904Z,11.67
2018-12-25T17:22:10.190Z,11.50
2018-12-25T17:24:30.019Z,11.80
2018-12-25T17:26:48.232Z,11.67
2018-12-25T17:29:07.470Z,12.63
2018-12-25T17:31:27.238Z,16.50
2018-12-25T17:33:35.099Z,10.55
2018-12-25T17:35:54.879Z,10.03
2018-12-25T17:38:14.364Z,14.13
2018-12-25T17:40:34.075Z,17.13
2018-12-25T17:42:53.902Z,19.73
2018-12-25T17:45:13.337Z,15.67
2018-12-25T17:47:32.934Z,11.67
2018-12-25T17:49:52.819Z,11.47
2018-12-25T17:52:12.714Z,15.03
2018-12-25T17:54:31.783Z,11.45
2018-12-25T17:56:51.514Z,12.53
2018-12-25T17:59:10.660Z,11.00
2018-12-25T18:01:30.643Z,12.13
2018-12-25T18:03:51.418Z,10.70
2018-12-25T18:06:11.822Z,11.30
2018-12-25T18:08:19.616Z,17.17
2018-12-25T18:10:39.106Z,11.87
2018-12-25T18:12:58.271Z,13.53
2018-12-25T18:15:17.719Z,14.30
2018-12-25T18:17:25.501Z,11.53
2018-12-25T18:19:44.994Z,13.07
2018-12-25T18:22:04.522Z,14.03
2018-12-25T18:24:24.727Z,10.83
2018-12-25T18:26:44.400Z,12.27
2018-12-25T18:29:04.354Z,12.40
2018-12-25T18:31:23.685Z,13.33
2018-12-25T18:33:43.155Z,15.40
2018-12-25T18:36:02.644Z,13.77
2018-12-25T18:38:22.192Z,11.73
2018-12-25T18:40:41.255Z,12.37
2018-12-25T18:43:00.568Z,13.10
2018-12-25T18:45:20.940Z,10.10
2018-12-25T18:47:40.936Z,11.80
2018-12-25T18:50:00.210Z,11.48
2018-12-25T18:52:20.395Z,11.07
2018-12-25T18:54:39.810Z,9.07
2018-12-25T18:56:59.459Z,10.20
2018-12-25T18:59:19.877Z,11.90
2018-12-25T19:01:39.419Z,12.40
2018-12-25T19:03:58.516Z,12.00
2018-12-25T19:06:18.148Z,10.03
2018-12-25T19:08:37.753Z,12.13
2018-12-25T19:10:57.232Z,13.53
2018-12-25T19:13:16.490Z,12.10
2018-12-25T19:15:36.590Z,10.73
2018-12-25T19:17:56.947Z,11.97
2018-12-25T19:20:16.056Z,10.40
2018-12-25T19:22:35.524Z,10.85
2018-12-25T19:24:55.315Z,10.73
2018-12-25T19:27:14.486Z,12.00
2018-12-25T19:29:33.875Z,11.47
2018-12-25T19:31:53.644Z,13.80
2018-12-25T19:34:12.791Z,11.30
2018-12-25T19:36:32.517Z,11.07
2018-12-25T19:38:51.636Z,14.23
2018-12-25T19:41:11.155Z,13.70
2018-12-25T19:43:31.098Z,13.27
2018-12-25T19:46:07.047Z,14.10
2018-12-25T19:48:28.661Z,16.80
2018-12-25T19:51:08.595Z,17.32
2018-12-25T19:53:19.016Z,21.03
2018-12-25T19:55:30.580Z,27.40
2018-12-25T19:58:21.505Z,19.92
2018-12-25T20:00:40.802Z,15.50
2018-12-25T20:03:07.829Z,21.27
2018-12-25T20:08:59.888Z,21.03
2018-12-25T20:11:41.083Z,22.97
2018-12-25T20:17:17.503Z,17.60
2018-12-25T20:23:10.166Z,17.12
2018-12-25T20:26:40.933Z,26.37
2018-12-25T20:29:22.154Z,16.33
2018-12-25T20:32:01.172Z,17.07
2018-12-25T20:34:59.135Z,15.67
2018-12-25T20:37:52.518Z,17.57
2018-12-25T20:41:11.534Z,14.57
2018-12-25T20:44:21.321Z,13.73
2018-12-25T20:53:19.461Z,13.83
2018-12-25T21:08:32.338Z,24.33
2018-12-25T21:14:19.439Z,20.33
2018-12-25T21:17:33.973Z,16.12
2018-12-25T21:20:12.852Z,15.57
2018-12-25T21:22:58.019Z,25.63
2018-12-25T21:25:54.917Z,23.50
2018-12-25T21:28:21.079Z,23.70
2018-12-25T21:30:58.879Z,30.90
2018-12-25T21:33:27.467Z,35.40
2018-12-25T21:36:00.244Z,18.67
2018-12-25T21:38:21.423Z,17.80
2018-12-25T21:40:48.328Z,16.00
2018-12-25T21:43:19.433Z,15.97
2018-12-25T21:45:39.728Z,16.17
2018-12-25T21:47:59.381Z,24.60
2018-12-25T21:50:20.793Z,17.10
2018-12-25T21:52:41.980Z,13.80
2018-12-25T21:55:02.266Z,14.30
2018-12-25T21:57:42.032Z,16.53
2018-12-25T21:59:57.877Z,12.70
2018-12-25T22:02:17.524Z,9.83
2018-12-25T22:04:40.457Z,8.67
2018-12-25T22:07:08.806Z,8.43
2018-12-25T22:09:28.272Z,11.57
2018-12-25T22:11:47.930Z,17.77
2018-12-25T22:14:08.611Z,12.77
2018-12-25T22:16:28.422Z,12.33
2018-12-25T22:18:48.052Z,12.45
2018-12-25T22:21:08.417Z,9.93
2018-12-25T22:23:31.134Z,9.43
2018-12-25T22:26:11.309Z,10.40
2018-12-25T22:28:31.216Z,7.80
2018-12-25T22:30:51.166Z,8.87
2018-12-25T22:33:11.929Z,8.90
2018-12-25T22:35:33.086Z,15.50
2018-12-25T22:37:52.803Z,12.30
2018-12-25T22:40:13.953Z,12.80
2018-12-25T22:42:33.557Z,9.90
2018-12-25T22:44:54.175Z,11.37
2018-12-25T22:47:13.401Z,10.90
2018-12-25T22:52:17.944Z,7.92
2018-12-25T22:54:37.215Z,9.33
2018-12-25T22:56:58.665Z,8.57
2018-12-25T22:59:19.180Z,10.20
2018-12-25T23:02:08.056Z,8.60
2018-12-25T23:04:29.324Z,7.20
2018-12-25T23:06:51.176Z,10.05
2018-12-25T23:09:14.346Z,11.00
2018-12-25T23:11:35.652Z,8.67
2018-12-25T23:13:59.102Z,15.93
2018-12-25T23:16:35.035Z,5.90
2018-12-25T23:21:37.695Z,6.60
2018-12-25T23:23:58.384Z,10.87
2018-12-25T23:26:18.860Z,9.00
2018-12-25T23:28:37.945Z,9.80
2018-12-25T23:30:58.745Z,8.50
2018-12-25T23:33:46.275Z,7.60
2018-12-25T23:36:07.624Z,12.67
2018-12-25T23:38:27.997Z,18.70
2018-12-25T23:40:50.074Z,25.02
2018-12-25T23:43:16.654Z,16.10
2018-12-25T23:45:49.704Z,14.05
2018-12-25T23:48:09.183Z,21.20
2018-12-25T23:50:29.230Z,12.30
2018-12-25T23:52:49.634Z,20.60
2018-12-25T23:55:08.911Z,17.40
2018-12-25T23:57:32.891Z,19.13
